sensor_id;sensor_type;location;lat;lon;timestamp;pressure;altitude;pressure_sealevel;temperature;humidity
59190;BME280;50749;51.636;4.948;2022-10-26T00:01:05;101391.72;;;17.61;60.80
59190;BME280;50749;51.636;4.948;2022-10-26T00:03:34;101402.44;;;17.63;60.76
59190;BME280;50749;51.636;4.948;2022-10-26T00:06:04;101394.16;;;17.63;60.94
59190;BME280;50749;51.636;4.948;2022-10-26T00:08:29;101400.84;;;17.62;60.81
59190;BME280;50749;51.636;4.948;2022-10-26T00:10:58;101390.94;;;17.61;60.95
59190;BME280;50749;51.636;4.948;2022-10-26T00:13:24;101388.97;;;17.61;61.05
59190;BME280;50749;51.636;4.948;2022-10-26T00:15:50;101389.31;;;17.60;60.82
59190;BME280;50749;51.636;4.948;2022-10-26T00:18:15;101390.13;;;17.60;60.77
59190;BME280;50749;51.636;4.948;2022-10-26T00:20:41;101386.53;;;17.60;60.87
59190;BME280;50749;51.636;4.948;2022-10-26T00:23:07;101383.78;;;17.60;61.22
59190;BME280;50749;51.636;4.948;2022-10-26T00:25:32;101377.13;;;17.61;60.78
59190;BME280;50749;51.636;4.948;2022-10-26T00:27:58;101376.31;;;17.60;61.01
59190;BME280;50749;51.636;4.948;2022-10-26T00:30:23;101375.47;;;17.60;60.58
59190;BME280;50749;51.636;4.948;2022-10-26T00:32:50;101373.06;;;17.58;60.91
59190;BME280;50749;51.636;4.948;2022-10-26T00:35:15;101369.97;;;17.60;61.00
59190;BME280;50749;51.636;4.948;2022-10-26T00:37:41;101361.66;;;17.60;60.95
59190;BME280;50749;51.636;4.948;2022-10-26T00:40:07;101366.41;;;17.59;61.09
59190;BME280;50749;51.636;4.948;2022-10-26T00:42:33;101371.91;;;17.59;60.93
59190;BME280;50749;51.636;4.948;2022-10-26T00:44:59;101360.06;;;17.59;60.64
59190;BME280;50749;51.636;4.948;2022-10-26T00:49:55;101358.44;;;17.58;60.66
59190;BME280;50749;51.636;4.948;2022-10-26T00:52:22;101358.44;;;17.58;60.80
59190;BME280;50749;51.636;4.948;2022-10-26T00:54:49;101357.31;;;17.59;60.95
59190;BME280;50749;51.636;4.948;2022-10-26T00:57:16;101359.25;;;17.58;61.08
59190;BME280;50749;51.636;4.948;2022-10-26T00:59:42;101354.53;;;17.59;61.02
59190;BME280;50749;51.636;4.948;2022-10-26T01:02:10;101352.91;;;17.58;61.06
59190;BME280;50749;51.636;4.948;2022-10-26T01:04:36;101348.19;;;17.58;61.01
59190;BME280;50749;51.636;4.948;2022-10-26T01:07:02;101349.34;;;17.57;61.12
59190;BME280;50749;51.636;4.948;2022-10-26T01:09:28;101357.63;;;17.57;61.17
59190;BME280;50749;51.636;4.948;2022-10-26T01:11:54;101360.41;;;17.57;61.38
59190;BME280;50749;51.636;4.948;2022-10-26T01:14:19;101364.75;;;17.58;61.14
59190;BME280;50749;51.636;4.948;2022-10-26T01:16:54;101361.22;;;17.58;60.95
59190;BME280;50749;51.636;4.948;2022-10-26T01:22:17;101350.47;;;17.56;61.22
59190;BME280;50749;51.636;4.948;2022-10-26T01:37:56;101328.72;;;17.55;61.30
59190;BME280;50749;51.636;4.948;2022-10-26T01:40:24;101335.88;;;17.56;61.11
59190;BME280;50749;51.636;4.948;2022-10-26T01:42:52;101327.56;;;17.56;61.15
59190;BME280;50749;51.636;4.948;2022-10-26T01:45:19;101326.78;;;17.55;61.15
59190;BME280;50749;51.636;4.948;2022-10-26T01:47:45;101333.09;;;17.56;61.26
59190;BME280;50749;51.636;4.948;2022-10-26T01:50:11;101327.56;;;17.56;61.32
59190;BME280;50749;51.636;4.948;2022-10-26T01:52:38;101320.41;;;17.55;61.35
59190;BME280;50749;51.636;4.948;2022-10-26T01:55:50;101307.44;;;17.55;61.09
59190;BME280;50749;51.636;4.948;2022-10-26T01:57:50;101312.13;;;17.55;61.13
59190;BME280;50749;51.636;4.948;2022-10-26T02:00:16;101306.59;;;17.55;61.27
59190;BME280;50749;51.636;4.948;2022-10-26T02:08:04;101313.28;;;17.54;61.00
59190;BME280;50749;51.636;4.948;2022-10-26T02:10:42;101303.84;;;17.55;61.15
59190;BME280;50749;51.636;4.948;2022-10-26T02:15:52;101301.41;;;17.53;61.13
59190;BME280;50749;51.636;4.948;2022-10-26T02:20:54;101293.13;;;17.53;61.13
59190;BME280;50749;51.636;4.948;2022-10-26T02:23:22;101298.66;;;17.53;61.37
59190;BME280;50749;51.636;4.948;2022-10-26T02:25:49;101294.75;;;17.54;61.24
59190;BME280;50749;51.636;4.948;2022-10-26T02:28:17;101284.81;;;17.53;61.21
59190;BME280;50749;51.636;4.948;2022-10-26T02:30:44;101289.56;;;17.53;61.01
59190;BME280;50749;51.636;4.948;2022-10-26T02:33:11;101291.97;;;17.54;61.30
59190;BME280;50749;51.636;4.948;2022-10-26T02:35:38;101285.66;;;17.54;61.15
59190;BME280;50749;51.636;4.948;2022-10-26T02:38:07;101289.22;;;17.54;61.24
59190;BME280;50749;51.636;4.948;2022-10-26T02:40:34;101285.66;;;17.54;61.31
59190;BME280;50749;51.636;4.948;2022-10-26T02:43:02;101282.06;;;17.53;61.54
59190;BME280;50749;51.636;4.948;2022-10-26T02:45:32;101277.34;;;17.54;61.23
59190;BME280;50749;51.636;4.948;2022-10-26T02:47:59;101279.28;;;17.53;61.52
59190;BME280;50749;51.636;4.948;2022-10-26T02:51:10;101279.28;;;17.53;61.51
59190;BME280;50749;51.636;4.948;2022-10-26T02:53:24;101272.97;;;17.53;61.02
59190;BME280;50749;51.636;4.948;2022-10-26T02:55:53;101275.38;;;17.54;61.35
59190;BME280;50749;51.636;4.948;2022-10-26T02:58:21;101269.06;;;17.54;61.30
59190;BME280;50749;51.636;4.948;2022-10-26T03:00:47;101258.00;;;17.54;61.16
59190;BME280;50749;51.636;4.948;2022-10-26T03:03:13;101261.91;;;17.53;61.18
59190;BME280;50749;51.636;4.948;2022-10-26T03:05:40;101272.16;;;17.52;61.08
59190;BME280;50749;51.636;4.948;2022-10-26T03:08:06;101271.38;;;17.52;61.15
59190;BME280;50749;51.636;4.948;2022-10-26T03:10:32;101265.84;;;17.52;61.45
59190;BME280;50749;51.636;4.948;2022-10-26T03:12:59;101261.91;;;17.53;61.02
59190;BME280;50749;51.636;4.948;2022-10-26T03:15:25;101262.25;;;17.51;61.11
59190;BME280;50749;51.636;4.948;2022-10-26T03:17:50;101267.44;;;17.53;61.10
59190;BME280;50749;51.636;4.948;2022-10-26T03:20:16;101261.91;;;17.53;61.18
59190;BME280;50749;51.636;4.948;2022-10-26T03:22:42;101267.44;;;17.53;61.17
59190;BME280;50749;51.636;4.948;2022-10-26T03:25:07;101259.16;;;17.53;61.14
59190;BME280;50749;51.636;4.948;2022-10-26T03:27:33;101264.69;;;17.53;61.22
59190;BME280;50749;51.636;4.948;2022-10-26T03:29:59;101263.09;;;17.52;61.22
59190;BME280;50749;51.636;4.948;2022-10-26T03:32:25;101268.59;;;17.52;61.25
59190;BME280;50749;51.636;4.948;2022-10-26T03:34:50;101264.22;;;17.51;61.11
59190;BME280;50749;51.636;4.948;2022-10-26T03:37:16;101268.59;;;17.52;61.25
59190;BME280;50749;51.636;4.948;2022-10-26T03:39:41;101260.31;;;17.52;61.34
59190;BME280;50749;51.636;4.948;2022-10-26T03:42:07;101268.59;;;17.52;61.22
59190;BME280;50749;51.636;4.948;2022-10-26T03:44:32;101271.38;;;17.52;61.24
59190;BME280;50749;51.636;4.948;2022-10-26T03:46:58;101263.09;;;17.52;61.40
59190;BME280;50749;51.636;4.948;2022-10-26T03:49:24;101274.13;;;17.52;61.37
59190;BME280;50749;51.636;4.948;2022-10-26T03:51:49;101270.53;;;17.51;61.44
59190;BME280;50749;51.636;4.948;2022-10-26T03:54:15;101271.38;;;17.52;61.60
59190;BME280;50749;51.636;4.948;2022-10-26T03:56:41;101270.53;;;17.51;61.15
59190;BME280;50749;51.636;4.948;2022-10-26T03:59:06;101266.97;;;17.51;61.45
59190;BME280;50749;51.636;4.948;2022-10-26T04:01:32;101265.84;;;17.52;61.60
59190;BME280;50749;51.636;4.948;2022-10-26T04:03:57;101264.22;;;17.51;61.41
59190;BME280;50749;51.636;4.948;2022-10-26T04:06:23;101265.84;;;17.52;61.64
59190;BME280;50749;51.636;4.948;2022-10-26T04:08:48;101255.59;;;17.52;61.38
59190;BME280;50749;51.636;4.948;2022-10-26T04:11:14;101257.19;;;17.53;61.29
59190;BME280;50749;51.636;4.948;2022-10-26T04:13:40;101250.84;;;17.53;61.25
59190;BME280;50749;51.636;4.948;2022-10-26T04:16:05;101251.66;;;17.53;61.36
59190;BME280;50749;51.636;4.948;2022-10-26T04:18:31;101251.66;;;17.53;61.52
59190;BME280;50749;51.636;4.948;2022-10-26T04:20:59;101248.88;;;17.53;61.43
59190;BME280;50749;51.636;4.948;2022-10-26T04:23:25;101250.06;;;17.52;61.47
59190;BME280;50749;51.636;4.948;2022-10-26T04:25:50;101252.03;;;17.52;61.29
59190;BME280;50749;51.636;4.948;2022-10-26T04:28:16;101244.53;;;17.52;61.13
59190;BME280;50749;51.636;4.948;2022-10-26T04:30:41;101245.31;;;17.53;61.56
59190;BME280;50749;51.636;4.948;2022-10-26T04:33:07;101244.53;;;17.52;61.32
59190;BME280;50749;51.636;4.948;2022-10-26T04:35:33;101241.41;;;17.54;61.46
59190;BME280;50749;51.636;4.948;2022-10-26T04:38:05;101244.19;;;17.54;61.63
59190;BME280;50749;51.636;4.948;2022-10-26T04:40:31;101243.34;;;17.53;61.25
59190;BME280;50749;51.636;4.948;2022-10-26T04:42:57;101246.94;;;17.54;61.60
59190;BME280;50749;51.636;4.948;2022-10-26T04:45:23;101243.34;;;17.53;61.53
59190;BME280;50749;51.636;4.948;2022-10-26T04:47:58;101257.19;;;17.53;61.27
59190;BME280;50749;51.636;4.948;2022-10-26T04:50:24;101250.84;;;17.53;61.13
59190;BME280;50749;51.636;4.948;2022-10-26T04:52:51;101246.94;;;17.54;61.60
59190;BME280;50749;51.636;4.948;2022-10-26T04:55:17;101244.97;;;17.54;61.36
59190;BME280;50749;51.636;4.948;2022-10-26T04:57:43;101249.72;;;17.54;61.44
59190;BME280;50749;51.636;4.948;2022-10-26T05:00:09;101244.19;;;17.54;61.61
59190;BME280;50749;51.636;4.948;2022-10-26T05:02:35;101245.31;;;17.53;61.45
59190;BME280;50749;51.636;4.948;2022-10-26T05:05:01;101247.28;;;17.52;61.45
59190;BME280;50749;51.636;4.948;2022-10-26T05:07:26;101253.63;;;17.53;61.36
59190;BME280;50749;51.636;4.948;2022-10-26T05:09:52;101251.66;;;17.53;61.08
59190;BME280;50749;51.636;4.948;2022-10-26T05:12:17;101257.19;;;17.53;61.57
59190;BME280;50749;51.636;4.948;2022-10-26T05:14:43;101261.91;;;17.53;61.54
59190;BME280;50749;51.636;4.948;2022-10-26T05:17:09;101263.88;;;17.52;61.21
59190;BME280;50749;51.636;4.948;2022-10-26T05:19:34;101265.03;;;17.51;61.56
59190;BME280;50749;51.636;4.948;2022-10-26T05:22:00;101263.09;;;17.52;61.38
59190;BME280;50749;51.636;4.948;2022-10-26T05:24:26;101265.84;;;17.52;61.51
59190;BME280;50749;51.636;4.948;2022-10-26T05:26:51;101272.16;;;17.52;61.18
59190;BME280;50749;51.636;4.948;2022-10-26T05:29:17;101271.38;;;17.52;61.08
59190;BME280;50749;51.636;4.948;2022-10-26T05:31:42;101272.97;;;17.53;61.47
59190;BME280;50749;51.636;4.948;2022-10-26T05:34:08;101263.09;;;17.52;61.42
59190;BME280;50749;51.636;4.948;2022-10-26T05:36:33;101268.59;;;17.52;61.54
59190;BME280;50749;51.636;4.948;2022-10-26T05:38:59;101269.75;;;17.51;61.48
59190;BME280;50749;51.636;4.948;2022-10-26T05:41:25;101272.16;;;17.52;61.63
59190;BME280;50749;51.636;4.948;2022-10-26T05:43:51;101268.59;;;17.52;61.53
59190;BME280;50749;51.636;4.948;2022-10-26T05:46:16;101266.66;;;17.52;61.54
59190;BME280;50749;51.636;4.948;2022-10-26T05:48:42;101271.38;;;17.52;61.40
59190;BME280;50749;51.636;4.948;2022-10-26T05:51:08;101270.53;;;17.51;61.05
59190;BME280;50749;51.636;4.948;2022-10-26T05:53:35;101267.78;;;17.51;61.40
59190;BME280;50749;51.636;4.948;2022-10-26T05:56:00;101275.28;;;17.51;61.53
59190;BME280;50749;51.636;4.948;2022-10-26T05:58:26;101271.38;;;17.52;61.49
59190;BME280;50749;51.636;4.948;2022-10-26T06:05:53;101265.84;;;17.52;61.32
59190;BME280;50749;51.636;4.948;2022-10-26T06:08:19;101268.59;;;17.52;61.31
59190;BME280;50749;51.636;4.948;2022-10-26T06:10:45;101267.78;;;17.51;61.23
59190;BME280;50749;51.636;4.948;2022-10-26T06:13:11;101270.53;;;17.51;61.52
59190;BME280;50749;51.636;4.948;2022-10-26T06:16:01;101273.31;;;17.51;61.05
59190;BME280;50749;51.636;4.948;2022-10-26T06:21:09;101263.44;;;17.50;61.19
59190;BME280;50749;51.636;4.948;2022-10-26T06:24:13;101258.69;;;17.51;61.64
59190;BME280;50749;51.636;4.948;2022-10-26T06:31:42;101259.84;;;17.50;61.48
59190;BME280;50749;51.636;4.948;2022-10-26T06:34:08;101258.69;;;17.51;61.45
59190;BME280;50749;51.636;4.948;2022-10-26T06:36:35;101269.75;;;17.51;61.57
59190;BME280;50749;51.636;4.948;2022-10-26T06:39:02;101266.53;;;17.49;61.64
59190;BME280;50749;51.636;4.948;2022-10-26T06:41:32;101271.72;;;17.50;61.24
59190;BME280;50749;51.636;4.948;2022-10-26T06:43:58;101265.84;;;17.52;61.23
59190;BME280;50749;51.636;4.948;2022-10-26T06:46:33;101269.75;;;17.51;61.38
59190;BME280;50749;51.636;4.948;2022-10-26T06:49:16;101271.38;;;17.52;61.58
59190;BME280;50749;51.636;4.948;2022-10-26T06:51:48;101281.59;;;17.51;61.62
59190;BME280;50749;51.636;4.948;2022-10-26T06:56:50;101285.19;;;17.52;61.21
59190;BME280;50749;51.636;4.948;2022-10-26T06:59:21;101294.28;;;17.52;61.48
59190;BME280;50749;51.636;4.948;2022-10-26T07:01:49;101291.53;;;17.52;61.18
59190;BME280;50749;51.636;4.948;2022-10-26T07:04:15;101304.16;;;17.53;61.38
59190;BME280;50749;51.636;4.948;2022-10-26T07:06:40;101302.56;;;17.52;61.58
59190;BME280;50749;51.636;4.948;2022-10-26T07:09:06;101302.25;;;17.54;61.23
59190;BME280;50749;51.636;4.948;2022-10-26T07:11:32;101304.53;;;17.52;61.25
59190;BME280;50749;51.636;4.948;2022-10-26T07:13:57;101297.06;;;17.52;61.61
59190;BME280;50749;51.636;4.948;2022-10-26T07:16:23;101316.41;;;17.52;61.50
59190;BME280;50749;51.636;4.948;2022-10-26T07:18:49;101312.84;;;17.52;61.48
59190;BME280;50749;51.636;4.948;2022-10-26T07:21:14;101319.97;;;17.53;61.32
59190;BME280;50749;51.636;4.948;2022-10-26T07:23:40;101317.19;;;17.53;61.63
59190;BME280;50749;51.636;4.948;2022-10-26T07:26:06;101331.81;;;17.53;61.36
59190;BME280;50749;51.636;4.948;2022-10-26T07:28:32;101338.16;;;17.54;61.28
59190;BME280;50749;51.636;4.948;2022-10-26T07:30:57;101346.47;;;17.54;61.46
59190;BME280;50749;51.636;4.948;2022-10-26T07:33:24;101340.59;;;17.55;61.42
59190;BME280;50749;51.636;4.948;2022-10-26T07:35:49;101339.44;;;17.56;61.70
59190;BME280;50749;51.636;4.948;2022-10-26T07:38:15;101339.09;;;17.58;61.60
59190;BME280;50749;51.636;4.948;2022-10-26T07:40:40;101348.19;;;17.58;61.87
59190;BME280;50749;51.636;4.948;2022-10-26T07:43:06;101343.47;;;17.59;61.68
59190;BME280;50749;51.636;4.948;2022-10-26T07:45:32;101344.28;;;17.59;61.53
59190;BME280;50749;51.636;4.948;2022-10-26T07:47:57;101347.50;;;17.61;61.67
59190;BME280;50749;51.636;4.948;2022-10-26T07:50:23;101370.44;;;17.62;61.58
59190;BME280;50749;51.636;4.948;2022-10-26T07:52:49;101367.69;;;17.62;61.32
59190;BME280;50749;51.636;4.948;2022-10-26T07:55:15;101372.03;;;17.63;61.60
59190;BME280;50749;51.636;4.948;2022-10-26T07:57:40;101364.19;;;17.65;61.39
59190;BME280;50749;51.636;4.948;2022-10-26T08:00:06;101361.94;;;17.67;61.42
59190;BME280;50749;51.636;4.948;2022-10-26T08:02:33;101366.28;;;17.68;61.77
59190;BME280;50749;51.636;4.948;2022-10-26T08:04:59;101369.06;;;17.68;61.73
59190;BME280;50749;51.636;4.948;2022-10-26T08:07:25;101371.47;;;17.70;61.32
59190;BME280;50749;51.636;4.948;2022-10-26T08:09:51;101375.06;;;17.70;61.66
59190;BME280;50749;51.636;4.948;2022-10-26T08:12:17;101388.91;;;17.70;61.32
59190;BME280;50749;51.636;4.948;2022-10-26T08:14:42;101383.38;;;17.70;61.38
59190;BME280;50749;51.636;4.948;2022-10-26T08:17:08;101390.50;;;17.71;61.76
59190;BME280;50749;51.636;4.948;2022-10-26T08:19:34;101377.47;;;17.72;61.35
59190;BME280;50749;51.636;4.948;2022-10-26T08:22:00;101376.31;;;17.73;61.80
59190;BME280;50749;51.636;4.948;2022-10-26T08:24:25;101378.75;;;17.74;61.79
59190;BME280;50749;51.636;4.948;2022-10-26T08:26:51;101379.22;;;17.76;61.41
59190;BME280;50749;51.636;4.948;2022-10-26T08:29:16;101380.84;;;17.77;61.82
59190;BME280;50749;51.636;4.948;2022-10-26T08:31:42;101374.63;;;17.80;61.61
59190;BME280;50749;51.636;4.948;2022-10-26T08:34:08;101365.97;;;17.82;61.56
59190;BME280;50749;51.636;4.948;2022-10-26T08:36:34;101366.88;;;17.86;61.35
59190;BME280;50749;51.636;4.948;2022-10-26T08:39:00;101370.25;;;17.92;61.65
59190;BME280;50749;51.636;4.948;2022-10-26T08:43:55;101379.25;;;18.01;61.45
59190;BME280;50749;51.636;4.948;2022-10-26T08:46:24;101376.25;;;18.06;61.48
59190;BME280;50749;51.636;4.948;2022-10-26T08:48:58;101381.13;;;18.09;60.87
59190;BME280;50749;51.636;4.948;2022-10-26T08:51:26;101381.56;;;18.11;60.93
59190;BME280;50749;51.636;4.948;2022-10-26T08:54:02;101383.66;;;18.14;60.97
59190;BME280;50749;51.636;4.948;2022-10-26T08:56:37;101399.06;;;18.15;61.34
59190;BME280;50749;51.636;4.948;2022-10-26T09:01:32;101411.78;;;18.16;61.41
59190;BME280;50749;51.636;4.948;2022-10-26T09:03:59;101418.94;;;18.17;61.22
59190;BME280;50749;51.636;4.948;2022-10-26T09:09:14;101426.88;;;18.19;61.61
59190;BME280;50749;51.636;4.948;2022-10-26T09:19:35;101442.91;;;18.26;61.16
59190;BME280;50749;51.636;4.948;2022-10-26T09:22:15;101443.38;;;18.28;61.14
59190;BME280;50749;51.636;4.948;2022-10-26T09:24:51;101432.31;;;18.28;61.58
59190;BME280;50749;51.636;4.948;2022-10-26T09:27:27;101438.28;;;18.30;61.23
59190;BME280;50749;51.636;4.948;2022-10-26T09:29:54;101448.22;;;18.31;61.54
59190;BME280;50749;51.636;4.948;2022-10-26T09:32:33;101444.28;;;18.32;61.65
59190;BME280;50749;51.636;4.948;2022-10-26T09:35:01;101443.13;;;18.33;61.44
59190;BME280;50749;51.636;4.948;2022-10-26T09:37:31;101445.56;;;18.34;61.60
59190;BME280;50749;51.636;4.948;2022-10-26T09:42:48;101447.66;;;18.37;61.56
59190;BME280;50749;51.636;4.948;2022-10-26T09:45:21;101443.38;;;18.40;61.24
59190;BME280;50749;51.636;4.948;2022-10-26T09:47:49;101452.94;;;18.43;61.19
59190;BME280;50749;51.636;4.948;2022-10-26T09:52:42;101453.84;;;18.47;61.46
59190;BME280;50749;51.636;4.948;2022-10-26T09:55:11;101461.81;;;18.48;61.11
59190;BME280;50749;51.636;4.948;2022-10-26T09:57:41;101473.34;;;18.50;61.42
59190;BME280;50749;51.636;4.948;2022-10-26T10:00:11;101470.22;;;18.52;61.53
59190;BME280;50749;51.636;4.948;2022-10-26T10:02:41;101474.63;;;18.53;61.32
59190;BME280;50749;51.636;4.948;2022-10-26T10:05:20;101490.91;;;18.54;61.59
59190;BME280;50749;51.636;4.948;2022-10-26T10:07:46;101493.66;;;18.54;61.31
59190;BME280;50749;51.636;4.948;2022-10-26T10:10:16;101492.16;;;18.57;61.28
59190;BME280;50749;51.636;4.948;2022-10-26T10:12:42;101494.56;;;18.59;61.54
59190;BME280;50749;51.636;4.948;2022-10-26T10:15:23;101500.22;;;18.62;61.88
59190;BME280;50749;51.636;4.948;2022-10-26T10:17:50;101500.22;;;18.62;61.22
59190;BME280;50749;51.636;4.948;2022-10-26T10:20:17;101505.75;;;18.62;61.69
59190;BME280;50749;51.636;4.948;2022-10-26T10:23:02;101505.41;;;18.64;61.42
59190;BME280;50749;51.636;4.948;2022-10-26T10:25:34;101513.72;;;18.64;61.70
59190;BME280;50749;51.636;4.948;2022-10-26T10:28:01;101533.91;;;18.64;61.62
59190;BME280;50749;51.636;4.948;2022-10-26T10:30:30;101554.13;;;18.65;61.33
59190;BME280;50749;51.636;4.948;2022-10-26T10:33:03;101547.75;;;18.64;61.40
59190;BME280;50749;51.636;4.948;2022-10-26T10:35:29;101558.84;;;18.64;61.50
59190;BME280;50749;51.636;4.948;2022-10-26T10:37:55;101571.53;;;18.65;61.29
59190;BME280;50749;51.636;4.948;2022-10-26T10:40:22;101564.38;;;18.64;61.70
59190;BME280;50749;51.636;4.948;2022-10-26T10:42:49;101564.75;;;18.63;61.65
59190;BME280;50749;51.636;4.948;2022-10-26T10:45:25;101575.81;;;18.63;61.49
59190;BME280;50749;51.636;4.948;2022-10-26T10:48:00;101565.09;;;18.61;61.46
59190;BME280;50749;51.636;4.948;2022-10-26T10:50:26;101570.63;;;18.61;61.48
59190;BME280;50749;51.636;4.948;2022-10-26T10:52:53;101573.41;;;18.61;61.74
59190;BME280;50749;51.636;4.948;2022-10-26T10:55:36;101580.53;;;18.62;62.02
59190;BME280;50749;51.636;4.948;2022-10-26T10:58:23;101593.56;;;18.62;61.54
59190;BME280;50749;51.636;4.948;2022-10-26T11:00:51;101589.19;;;18.61;62.00
59190;BME280;50749;51.636;4.948;2022-10-26T11:06:16;101588.03;;;18.62;61.58
59190;BME280;50749;51.636;4.948;2022-10-26T11:11:11;101577.41;;;18.64;61.83
59190;BME280;50749;51.636;4.948;2022-10-26T11:13:40;101577.75;;;18.62;61.61
59190;BME280;50749;51.636;4.948;2022-10-26T11:16:12;101578.59;;;18.63;61.87
59190;BME280;50749;51.636;4.948;2022-10-26T11:18:40;101578.59;;;18.63;61.95
59190;BME280;50749;51.636;4.948;2022-10-26T11:21:24;101580.19;;;18.64;61.99
59190;BME280;50749;51.636;4.948;2022-10-26T11:24:04;101582.50;;;18.62;62.25
59190;BME280;50749;51.636;4.948;2022-10-26T11:31:39;101601.88;;;18.62;61.82
59190;BME280;50749;51.636;4.948;2022-10-26T11:34:41;101605.44;;;18.62;61.95
59190;BME280;50749;51.636;4.948;2022-10-26T11:37:03;101601.53;;;18.63;62.02
59190;BME280;50749;51.636;4.948;2022-10-26T11:45:10;101592.91;;;18.65;62.16
59190;BME280;50749;51.636;4.948;2022-10-26T11:47:41;101608.69;;;18.64;62.34
59190;BME280;50749;51.636;4.948;2022-10-26T11:52:41;101622.19;;;18.66;61.96
59190;BME280;50749;51.636;4.948;2022-10-26T11:55:09;101620.59;;;18.65;62.07
59190;BME280;50749;51.636;4.948;2022-10-26T11:57:35;101623.34;;;18.65;62.06
59190;BME280;50749;51.636;4.948;2022-10-26T12:00:05;101617.81;;;18.65;62.17
59190;BME280;50749;51.636;4.948;2022-10-26T12:02:34;101615.84;;;18.65;62.43
59190;BME280;50749;51.636;4.948;2022-10-26T12:05:05;101620.59;;;18.65;62.35
59190;BME280;50749;51.636;4.948;2022-10-26T12:07:37;101612.28;;;18.65;62.25
59190;BME280;50749;51.636;4.948;2022-10-26T12:10:05;101630.84;;;18.64;62.37
59190;BME280;50749;51.636;4.948;2022-10-26T12:12:47;101609.06;;;18.63;62.24
59190;BME280;50749;51.636;4.948;2022-10-26T12:15:17;101624.50;;;18.64;62.11
59190;BME280;50749;51.636;4.948;2022-10-26T12:23:00;101617.81;;;18.65;62.29
59190;BME280;50749;51.636;4.948;2022-10-26T12:25:27;101621.38;;;18.65;62.11
59190;BME280;50749;51.636;4.948;2022-10-26T12:27:54;101624.50;;;18.64;62.44
59190;BME280;50749;51.636;4.948;2022-10-26T12:35:28;101625.28;;;18.64;62.48
59190;BME280;50749;51.636;4.948;2022-10-26T12:37:54;101618.97;;;18.64;62.17
59190;BME280;50749;51.636;4.948;2022-10-26T12:42:55;101618.97;;;18.64;62.44
59190;BME280;50749;51.636;4.948;2022-10-26T12:45:22;101615.06;;;18.65;62.48
59190;BME280;50749;51.636;4.948;2022-10-26T12:52:45;101624.50;;;18.64;62.38
59190;BME280;50749;51.636;4.948;2022-10-26T13:00:16;101636.38;;;18.64;62.67
59190;BME280;50749;51.636;4.948;2022-10-26T13:05:40;101646.66;;;18.64;62.45
59190;BME280;50749;51.636;4.948;2022-10-26T13:08:14;101641.91;;;18.64;62.41
59190;BME280;50749;51.636;4.948;2022-10-26T13:10:45;101642.75;;;18.65;62.70
59190;BME280;50749;51.636;4.948;2022-10-26T13:13:24;101639.16;;;18.64;62.78
59190;BME280;50749;51.636;4.948;2022-10-26T13:15:51;101657.72;;;18.64;62.85
59190;BME280;50749;51.636;4.948;2022-10-26T13:18:18;101646.66;;;18.64;62.97
59190;BME280;50749;51.636;4.948;2022-10-26T13:23:30;101650.59;;;18.63;62.53
59190;BME280;50749;51.636;4.948;2022-10-26T13:26:04;101661.66;;;18.63;62.80
59190;BME280;50749;51.636;4.948;2022-10-26T13:30:56;101659.25;;;18.61;62.82
59190;BME280;50749;51.636;4.948;2022-10-26T13:33:22;101664.78;;;18.61;62.63
59190;BME280;50749;51.636;4.948;2022-10-26T13:35:50;101663.94;;;18.61;62.57
59190;BME280;50749;51.636;4.948;2022-10-26T13:38:17;101660.84;;;18.62;63.02
59190;BME280;50749;51.636;4.948;2022-10-26T13:40:44;101658.06;;;18.62;62.83
59190;BME280;50749;51.636;4.948;2022-10-26T13:43:13;101664.44;;;18.63;62.53
59190;BME280;50749;51.636;4.948;2022-10-26T13:45:57;101664.44;;;18.63;62.87
59190;BME280;50749;51.636;4.948;2022-10-26T13:48:39;101663.59;;;18.62;62.53
59190;BME280;50749;51.636;4.948;2022-10-26T13:53:37;101672.75;;;18.63;63.01
59190;BME280;50749;51.636;4.948;2022-10-26T13:58:48;101679.75;;;18.60;62.88
59190;BME280;50749;51.636;4.948;2022-10-26T14:01:15;101683.34;;;18.61;62.62
59190;BME280;50749;51.636;4.948;2022-10-26T14:03:42;101684.16;;;18.61;63.07
59190;BME280;50749;51.636;4.948;2022-10-26T14:08:37;101701.91;;;18.60;62.93
59190;BME280;50749;51.636;4.948;2022-10-26T14:11:05;101701.13;;;18.60;63.11
59190;BME280;50749;51.636;4.948;2022-10-26T14:13:32;101708.25;;;18.61;63.08
59190;BME280;50749;51.636;4.948;2022-10-26T14:15:58;101701.91;;;18.60;63.22
59190;BME280;50749;51.636;4.948;2022-10-26T14:18:25;101699.16;;;18.60;62.98
59190;BME280;50749;51.636;4.948;2022-10-26T14:21:02;101704.69;;;18.60;62.83
59190;BME280;50749;51.636;4.948;2022-10-26T14:23:32;101711.84;;;18.61;62.79
59190;BME280;50749;51.636;4.948;2022-10-26T14:25:58;101701.91;;;18.60;62.81
59190;BME280;50749;51.636;4.948;2022-10-26T14:28:25;101709.09;;;18.61;63.00
59190;BME280;50749;51.636;4.948;2022-10-26T14:30:51;101722.94;;;18.61;63.07
59190;BME280;50749;51.636;4.948;2022-10-26T14:33:17;101732.84;;;18.62;62.75
59190;BME280;50749;51.636;4.948;2022-10-26T14:35:44;101728.47;;;18.61;62.95
59190;BME280;50749;51.636;4.948;2022-10-26T14:40:40;101741.50;;;18.61;62.89
59190;BME280;50749;51.636;4.948;2022-10-26T14:43:05;101747.03;;;18.61;63.23
59190;BME280;50749;51.636;4.948;2022-10-26T14:45:33;101758.09;;;18.61;63.23
59190;BME280;50749;51.636;4.948;2022-10-26T14:48:00;101756.16;;;18.61;63.34
59190;BME280;50749;51.636;4.948;2022-10-26T14:50:26;101762.03;;;18.60;63.18
59190;BME280;50749;51.636;4.948;2022-10-26T14:52:56;101762.03;;;18.60;62.92
59190;BME280;50749;51.636;4.948;2022-10-26T14:55:22;101773.13;;;18.60;62.75
59190;BME280;50749;51.636;4.948;2022-10-26T14:57:49;101767.59;;;18.60;63.19
59190;BME280;50749;51.636;4.948;2022-10-26T15:02:41;101773.91;;;18.60;62.80